createdAt,value
2018-05-21T00:00:12.378Z,63.40
2018-05-21T00:02:42.163Z,61.50
2018-05-21T00:05:11.881Z,61.80
2018-05-21T00:07:42.416Z,63.00
2018-05-21T00:10:13.063Z,63.00
2018-05-21T00:12:42.807Z,68.60
2018-05-21T00:15:12.644Z,68.70
2018-05-21T00:17:42.453Z,69.60
2018-05-21T00:20:12.407Z,70.90
2018-05-21T00:22:42.259Z,70.10
2018-05-21T00:25:12.123Z,70.00
2018-05-21T00:27:41.907Z,70.90
2018-05-21T00:30:11.628Z,72.10
2018-05-21T00:32:41.424Z,73.60
2018-05-21T00:35:11.463Z,72.60
2018-05-21T00:37:42.253Z,73.90
2018-05-21T00:40:12.286Z,73.90
2018-05-21T00:42:42.359Z,75.20
2018-05-21T00:45:12.627Z,74.10
2018-05-21T00:47:43.052Z,74.80
2018-05-21T00:50:12.777Z,74.40
2018-05-21T00:52:42.450Z,74.90
2018-05-21T00:55:23.760Z,76.40
2018-05-21T00:57:54.063Z,76.20
2018-05-21T01:00:24.808Z,76.40
2018-05-21T01:02:55.162Z,77.00
2018-05-21T01:05:25.512Z,78.30
2018-05-21T01:07:56.634Z,78.10
2018-05-21T01:10:26.780Z,78.20
2018-05-21T01:12:57.057Z,78.50
2018-05-21T01:15:27.659Z,78.80
2018-05-21T01:17:58.624Z,79.30
2018-05-21T01:20:30.106Z,79.50
2018-05-21T01:23:00.852Z,79.90
2018-05-21T01:25:32.185Z,79.10
2018-05-21T01:28:04.855Z,78.80
2018-05-21T01:30:35.343Z,79.80
2018-05-21T01:33:06.194Z,80.10
2018-05-21T01:35:36.559Z,81.00
2018-05-21T01:38:07.056Z,80.20
2018-05-21T01:40:37.186Z,80.80
2018-05-21T01:43:07.616Z,81.50
2018-05-21T01:45:37.766Z,82.00
2018-05-21T01:48:08.756Z,81.60
2018-05-21T01:50:39.076Z,81.50
2018-05-21T01:53:09.406Z,81.70
2018-05-21T01:55:40.032Z,81.80
2018-05-21T01:58:10.269Z,82.90
2018-05-21T02:00:40.949Z,82.80
2018-05-21T02:03:11.537Z,82.20
2018-05-21T02:05:42.041Z,82.50
2018-05-21T02:08:13.226Z,82.20
2018-05-21T02:10:44.278Z,83.20
2018-05-21T02:13:14.544Z,83.10
2018-05-21T02:15:44.702Z,83.20
2018-05-21T02:18:15.457Z,82.70
2018-05-21T02:23:24.093Z,82.80
2018-05-21T02:25:55.235Z,82.10
2018-05-21T02:28:27.674Z,81.40
2018-05-21T02:30:58.250Z,81.40
2018-05-21T02:33:29.798Z,81.30
2018-05-21T02:36:00.732Z,82.00
2018-05-21T02:38:31.955Z,82.20
2018-05-21T02:41:02.079Z,82.30
2018-05-21T02:43:32.171Z,80.90
2018-05-21T02:46:02.505Z,80.60
2018-05-21T02:48:32.817Z,80.30
2018-05-21T02:51:02.950Z,79.50
2018-05-21T02:53:32.864Z,79.70
2018-05-21T02:56:03.430Z,80.40
2018-05-21T02:58:34.654Z,79.70
2018-05-21T03:01:05.142Z,79.40
2018-05-21T03:03:35.702Z,80.10
2018-05-21T03:06:05.547Z,81.50
2018-05-21T03:08:35.470Z,80.60
2018-05-21T03:11:06.681Z,82.00
2018-05-21T03:13:37.159Z,82.00
2018-05-21T03:16:07.553Z,81.20
2018-05-21T03:18:37.943Z,83.00
2018-05-21T03:21:09.100Z,82.20
2018-05-21T03:23:39.364Z,82.20
2018-05-21T03:26:09.861Z,82.30
2018-05-21T03:28:41.020Z,81.40
2018-05-21T03:31:11.518Z,81.50
2018-05-21T03:33:41.901Z,81.70
2018-05-21T03:36:12.200Z,81.80
2018-05-21T03:38:42.414Z,83.20
2018-05-21T03:41:12.535Z,82.80
2018-05-21T03:43:42.740Z,82.30
2018-05-21T03:46:12.997Z,81.60
2018-05-21T03:48:43.839Z,81.80
2018-05-21T03:51:14.622Z,81.90
2018-05-21T03:53:45.081Z,81.90
2018-05-21T03:56:21.818Z,82.20
2018-05-21T03:59:03.334Z,82.30
2018-05-21T04:01:57.546Z,83.30
2018-05-21T04:04:28.573Z,82.40
2018-05-21T04:06:58.996Z,82.40
2018-05-21T04:09:30.168Z,82.50
2018-05-21T04:12:00.686Z,82.40
2018-05-21T04:14:32.027Z,83.70
2018-05-21T04:17:02.278Z,83.70
2018-05-21T04:19:33.485Z,83.80
2018-05-21T04:22:03.901Z,83.80
2018-05-21T04:24:34.142Z,83.90
2018-05-21T04:27:04.689Z,82.90
2018-05-21T04:29:35.823Z,83.30
2018-05-21T04:32:06.319Z,83.20
2018-05-21T04:34:36.474Z,84.00
2018-05-21T04:37:07.807Z,84.10
2018-05-21T04:39:37.921Z,83.40
2018-05-21T04:42:08.324Z,83.20
2018-05-21T04:44:38.717Z,83.80
2018-05-21T04:47:09.673Z,84.90
2018-05-21T04:49:39.760Z,84.80
2018-05-21T04:52:13.823Z,85.20
2018-05-21T04:54:44.848Z,85.20
2018-05-21T04:57:15.005Z,86.10
2018-05-21T04:59:45.104Z,86.30
2018-05-21T05:02:15.541Z,86.50
2018-05-21T05:04:45.633Z,86.70
2018-05-21T05:07:16.228Z,86.90
2018-05-21T05:09:47.274Z,87.30
2018-05-21T05:12:17.550Z,87.70
2018-05-21T05:14:48.280Z,87.90
2018-05-21T05:17:19.143Z,87.60
2018-05-21T05:19:51.208Z,88.20
2018-05-21T05:22:22.582Z,88.30
2018-05-21T05:24:53.196Z,87.90
2018-05-21T05:27:23.842Z,88.40
2018-05-21T05:29:55.784Z,88.70
2018-05-21T05:32:27.051Z,88.20
2018-05-21T05:34:57.933Z,88.30
2018-05-21T05:37:28.459Z,88.90
2018-05-21T05:39:58.849Z,88.80
2018-05-21T05:42:30.047Z,88.30
2018-05-21T05:45:00.802Z,88.30
2018-05-21T05:47:31.851Z,88.50
2018-05-21T05:50:03.916Z,88.40
2018-05-21T05:52:35.142Z,87.40
2018-05-21T05:55:05.622Z,87.30
2018-05-21T05:57:37.143Z,87.70
2018-05-21T06:00:08.761Z,87.70
2018-05-21T06:02:39.067Z,88.20
2018-05-21T06:05:10.051Z,87.70
2018-05-21T06:07:40.078Z,88.30
2018-05-21T06:10:10.201Z,87.90
2018-05-21T06:12:40.492Z,88.30
2018-05-21T06:15:11.131Z,88.00
2018-05-21T06:17:41.394Z,88.20
2018-05-21T06:20:11.710Z,87.90
2018-05-21T06:22:41.729Z,88.00
2018-05-21T06:25:12.424Z,87.80
2018-05-21T06:27:42.635Z,87.80
2018-05-21T06:30:13.200Z,88.40
2018-05-21T06:32:43.572Z,88.20
2018-05-21T06:35:14.938Z,88.10
2018-05-21T06:37:45.775Z,88.20
2018-05-21T06:40:16.395Z,88.70
2018-05-21T06:42:46.258Z,89.20
2018-05-21T06:45:16.961Z,88.40
2018-05-21T06:47:47.567Z,88.80
2018-05-21T06:50:18.359Z,88.40
2018-05-21T06:52:48.910Z,88.40
2018-05-21T06:55:19.715Z,88.00
2018-05-21T06:57:50.656Z,88.40
2018-05-21T07:00:21.489Z,89.40
2018-05-21T07:02:52.109Z,89.50
2018-05-21T07:05:22.631Z,89.50
2018-05-21T07:07:53.399Z,89.70
2018-05-21T07:10:24.863Z,89.20
2018-05-21T07:12:55.248Z,89.20
2018-05-21T07:15:27.081Z,89.20
2018-05-21T07:17:57.742Z,88.60
2018-05-21T07:20:28.385Z,88.90
2018-05-21T07:22:58.878Z,89.00
2018-05-21T07:25:29.257Z,89.10
2018-05-21T07:27:59.853Z,89.00
2018-05-21T07:30:30.784Z,89.20
2018-05-21T07:33:01.734Z,89.20
2018-05-21T07:35:32.498Z,88.90
2018-05-21T07:38:03.464Z,88.60
2018-05-21T07:40:33.447Z,88.60
2018-05-21T07:43:03.664Z,88.60
2018-05-21T07:45:33.823Z,88.40
2018-05-21T07:48:03.770Z,89.00
2018-05-21T07:50:34.254Z,88.70
2018-05-21T07:53:04.654Z,89.00
2018-05-21T07:55:34.961Z,88.80
2018-05-21T07:58:05.320Z,89.00
2018-05-21T08:00:35.608Z,89.20
2018-05-21T08:03:06.136Z,89.50
2018-05-21T08:05:36.956Z,89.50
2018-05-21T08:08:08.164Z,89.80
2018-05-21T08:10:39.177Z,89.00
2018-05-21T08:13:09.392Z,88.90
2018-05-21T08:15:39.367Z,89.30
2018-05-21T08:18:10.474Z,88.80
2018-05-21T08:20:40.733Z,88.80
2018-05-21T08:23:11.707Z,88.80
2018-05-21T08:25:41.938Z,88.80
2018-05-21T08:28:12.674Z,88.60
2018-05-21T08:30:43.142Z,88.60
2018-05-21T08:33:13.428Z,88.90
2018-05-21T08:35:43.966Z,89.20
2018-05-21T08:38:14.111Z,88.90
2018-05-21T08:40:44.524Z,89.50
2018-05-21T08:43:15.592Z,89.40
2018-05-21T08:45:45.491Z,89.80
2018-05-21T08:48:15.871Z,90.40
2018-05-21T08:50:46.321Z,90.50
2018-05-21T08:53:16.081Z,90.60
2018-05-21T08:55:47.182Z,90.90
2018-05-21T08:58:17.293Z,90.90
2018-05-21T09:00:47.722Z,91.10
2018-05-21T09:03:18.357Z,91.40
2018-05-21T09:05:48.600Z,91.90
2018-05-21T09:08:19.104Z,92.00
2018-05-21T09:10:49.247Z,92.20
2018-05-21T09:13:19.843Z,92.10
2018-05-21T09:15:50.297Z,92.40
2018-05-21T09:18:20.919Z,92.60
2018-05-21T09:20:51.267Z,92.60
2018-05-21T09:23:22.229Z,92.60
2018-05-21T09:25:54.148Z,92.80
2018-05-21T09:28:25.182Z,92.80
2018-05-21T09:30:55.406Z,92.90
2018-05-21T09:33:25.527Z,93.10
2018-05-21T09:35:55.825Z,93.00
2018-05-21T09:38:25.971Z,93.20
2018-05-21T09:40:56.174Z,93.20
2018-05-21T09:43:26.403Z,93.40
2018-05-21T09:45:56.835Z,93.10
2018-05-21T09:48:27.280Z,93.20
2018-05-21T09:50:57.478Z,93.30
2018-05-21T09:53:27.607Z,93.20
2018-05-21T09:55:58.751Z,93.30
2018-05-21T09:58:29.069Z,93.30
2018-05-21T10:00:59.392Z,93.50
2018-05-21T10:03:29.618Z,93.50
2018-05-21T10:06:00.054Z,93.60
2018-05-21T10:08:29.994Z,93.80
2018-05-21T10:11:00.400Z,93.60
2018-05-21T10:13:30.859Z,93.70
2018-05-21T10:16:01.269Z,93.70
2018-05-21T10:18:31.279Z,93.80
2018-05-21T10:21:01.282Z,93.90
2018-05-21T10:23:31.797Z,93.90
2018-05-21T10:26:02.926Z,93.80
2018-05-21T10:28:33.001Z,93.80
2018-05-21T10:31:02.973Z,94.10
2018-05-21T10:33:33.307Z,93.80
2018-05-21T10:36:03.634Z,93.80
2018-05-21T10:38:33.741Z,93.60
2018-05-21T10:41:04.186Z,93.50
2018-05-21T10:43:34.559Z,93.20
2018-05-21T10:46:04.740Z,92.80
2018-05-21T10:48:34.767Z,92.90
2018-05-21T10:51:04.849Z,92.60
2018-05-21T10:53:35.689Z,92.20
2018-05-21T10:56:06.384Z,92.20
2018-05-21T10:58:37.465Z,92.00
2018-05-21T11:01:07.810Z,92.00
2018-05-21T11:03:38.848Z,91.60
2018-05-21T11:06:09.172Z,91.60
2018-05-21T11:08:39.303Z,91.90
2018-05-21T11:11:09.619Z,91.70
2018-05-21T11:13:39.867Z,91.70
2018-05-21T11:16:10.898Z,91.90
2018-05-21T11:18:41.215Z,91.90
2018-05-21T11:21:11.349Z,92.00
2018-05-21T11:23:41.746Z,92.00
2018-05-21T11:26:11.944Z,92.20
2018-05-21T11:28:42.395Z,91.70
2018-05-21T11:31:12.627Z,91.70
2018-05-21T11:33:42.947Z,91.60
2018-05-21T11:36:13.373Z,91.70
2018-05-21T11:38:43.897Z,91.70
2018-05-21T11:41:13.912Z,91.80
2018-05-21T11:43:44.254Z,91.50
2018-05-21T11:46:14.629Z,91.50
2018-05-21T11:48:45.504Z,91.50
2018-05-21T11:51:15.930Z,91.50
2018-05-21T11:53:46.290Z,91.80
2018-05-21T11:56:16.614Z,91.20
2018-05-21T11:58:47.004Z,91.30
2018-05-21T12:01:17.325Z,91.50
2018-05-21T12:03:47.671Z,91.60
2018-05-21T12:06:18.209Z,91.80
2018-05-21T12:08:48.582Z,91.60
2018-05-21T12:11:19.035Z,91.30
2018-05-21T12:13:49.492Z,91.20
2018-05-21T12:16:19.883Z,91.10
2018-05-21T12:18:50.144Z,91.20
2018-05-21T12:21:20.694Z,91.50
2018-05-21T12:23:51.112Z,90.90
2018-05-21T12:26:21.725Z,90.90
2018-05-21T12:28:51.958Z,91.00
2018-05-21T12:31:22.979Z,91.00
2018-05-21T12:33:53.757Z,91.00
2018-05-21T12:36:25.204Z,91.00
2018-05-21T12:38:56.005Z,91.00
2018-05-21T12:41:26.748Z,91.10
2018-05-21T12:43:58.053Z,91.30
2018-05-21T12:46:29.084Z,91.40
2018-05-21T12:49:00.487Z,90.70
2018-05-21T12:51:31.024Z,90.70
2018-05-21T12:54:01.835Z,90.80
2018-05-21T12:56:32.689Z,90.80
2018-05-21T12:59:02.922Z,91.00
2018-05-21T13:01:33.332Z,90.70
2018-05-21T13:04:03.573Z,90.40
2018-05-21T13:06:36.950Z,90.80
2018-05-21T13:09:07.306Z,91.20
2018-05-21T13:11:37.418Z,91.80
2018-05-21T13:14:07.697Z,91.80
2018-05-21T13:16:38.562Z,92.10
2018-05-21T13:19:08.733Z,90.70
2018-05-21T13:21:39.268Z,91.30
2018-05-21T13:24:09.561Z,91.30
2018-05-21T13:26:40.159Z,91.30
2018-05-21T13:29:10.287Z,91.30
2018-05-21T13:31:40.594Z,91.60
2018-05-21T13:34:11.015Z,91.70
2018-05-21T13:36:41.657Z,91.20
2018-05-21T13:39:12.306Z,91.40
2018-05-21T13:41:43.244Z,91.30
2018-05-21T13:44:13.912Z,91.30
2018-05-21T13:46:45.332Z,90.30
2018-05-21T13:49:15.773Z,90.30
2018-05-21T13:51:46.174Z,90.80
2018-05-21T13:54:16.477Z,90.40
2018-05-21T13:56:46.647Z,90.50
2018-05-21T13:59:16.725Z,90.70
2018-05-21T14:01:47.001Z,90.40
2018-05-21T14:04:17.800Z,90.20
2018-05-21T14:06:48.339Z,90.20
2018-05-21T14:09:18.770Z,90.10
2018-05-21T14:11:48.912Z,90.00
2018-05-21T14:14:19.745Z,88.40
2018-05-21T14:16:50.662Z,89.10
2018-05-21T14:19:20.874Z,89.00
2018-05-21T14:21:51.108Z,89.30
2018-05-21T14:24:21.322Z,87.50
2018-05-21T14:26:51.527Z,88.30
2018-05-21T14:29:21.885Z,87.20
2018-05-21T14:31:51.892Z,88.70
2018-05-21T14:34:21.916Z,88.50
2018-05-21T14:36:52.287Z,88.10
2018-05-21T14:39:22.460Z,87.90
2018-05-21T14:41:52.457Z,87.30
2018-05-21T14:44:23.291Z,85.70
2018-05-21T14:46:53.598Z,85.70
2018-05-21T14:49:23.956Z,86.40
2018-05-21T14:51:54.568Z,85.80
2018-05-21T14:54:24.588Z,85.70
2018-05-21T14:56:54.826Z,86.10
2018-05-21T14:59:25.128Z,84.70
2018-05-21T15:01:55.585Z,82.90
2018-05-21T15:04:25.641Z,82.10
2018-05-21T15:06:56.014Z,82.60
2018-05-21T15:09:26.110Z,81.70
2018-05-21T15:11:56.479Z,80.20
2018-05-21T15:14:27.494Z,81.70
2018-05-21T15:16:57.684Z,81.70
2018-05-21T15:19:28.044Z,82.60
2018-05-21T15:21:57.963Z,81.30
2018-05-21T15:24:28.252Z,82.00
2018-05-21T15:26:58.379Z,81.90
2018-05-21T15:29:28.704Z,80.40
2018-05-21T15:31:58.855Z,83.60
2018-05-21T15:34:29.275Z,82.30
2018-05-21T15:36:59.600Z,80.40
2018-05-21T15:39:29.963Z,80.80
2018-05-21T15:42:01.475Z,82.00
2018-05-21T15:44:31.707Z,81.20
2018-05-21T15:47:02.094Z,78.40
2018-05-21T15:49:32.250Z,79.10
2018-05-21T15:52:02.687Z,78.30
2018-05-21T15:54:32.791Z,78.30
2018-05-21T15:57:03.563Z,80.00
2018-05-21T15:59:33.458Z,80.40
2018-05-21T16:02:03.842Z,80.60
2018-05-21T16:04:34.382Z,79.30
2018-05-21T16:07:04.483Z,81.00
2018-05-21T16:09:34.390Z,80.70
2018-05-21T16:12:04.856Z,81.00
2018-05-21T16:14:35.193Z,80.10
2018-05-21T16:17:05.217Z,79.50
2018-05-21T16:19:35.623Z,81.70
2018-05-21T16:22:06.351Z,81.30
2018-05-21T16:24:36.705Z,80.40
2018-05-21T16:27:07.128Z,79.90
2018-05-21T16:29:37.649Z,79.80
2018-05-21T16:32:08.915Z,78.90
2018-05-21T16:34:39.126Z,79.40
2018-05-21T16:37:09.212Z,78.30
2018-05-21T16:39:39.279Z,77.70
2018-05-21T16:42:09.644Z,78.20
2018-05-21T16:44:40.218Z,77.70
2018-05-21T16:47:10.524Z,79.00
2018-05-21T16:49:40.760Z,77.80
2018-05-21T16:52:10.876Z,77.00
2018-05-21T16:54:41.368Z,76.90
2018-05-21T16:57:11.615Z,77.10
2018-05-21T16:59:41.960Z,78.10
2018-05-21T17:02:12.384Z,76.90
2018-05-21T17:04:44.024Z,76.80
2018-05-21T17:07:14.547Z,76.60
2018-05-21T17:09:45.809Z,77.90
2018-05-21T17:12:16.121Z,77.80
2018-05-21T17:14:46.583Z,75.10
2018-05-21T17:17:17.080Z,75.50
2018-05-21T17:19:47.511Z,75.60
2018-05-21T17:22:17.920Z,75.10
2018-05-21T17:24:48.571Z,74.90
2018-05-21T17:27:18.554Z,76.50
2018-05-21T17:29:48.262Z,76.50
2018-05-21T17:32:21.136Z,73.90
2018-05-21T17:34:53.186Z,73.80
2018-05-21T17:37:25.010Z,71.50
2018-05-21T17:39:55.548Z,71.50
2018-05-21T17:42:26.219Z,70.20
2018-05-21T17:44:56.668Z,70.30
2018-05-21T17:47:27.056Z,71.50
2018-05-21T17:49:57.158Z,71.20
2018-05-21T17:52:27.577Z,71.10
2018-05-21T17:55:00.496Z,70.10
2018-05-21T17:57:31.265Z,68.70
2018-05-21T18:00:02.591Z,66.60
2018-05-21T18:02:33.318Z,66.90
2018-05-21T18:05:03.931Z,67.40
2018-05-21T18:07:35.688Z,68.30
2018-05-21T18:10:06.137Z,68.00
2018-05-21T18:12:36.935Z,67.70
2018-05-21T18:15:07.090Z,67.70
2018-05-21T18:17:38.227Z,67.00
2018-05-21T18:20:09.356Z,67.70
2018-05-21T18:22:39.588Z,67.70
2018-05-21T18:25:12.355Z,68.90
2018-05-21T18:27:42.439Z,68.80
2018-05-21T18:30:12.856Z,67.40
2018-05-21T18:32:43.214Z,66.90
2018-05-21T18:35:13.538Z,65.40
2018-05-21T18:37:43.966Z,66.10
2018-05-21T18:40:14.386Z,65.10
2018-05-21T18:42:45.147Z,67.40
2018-05-21T18:45:16.979Z,68.70
2018-05-21T18:47:47.235Z,68.70
2018-05-21T18:50:17.968Z,68.70
2018-05-21T18:52:48.252Z,69.20
2018-05-21T18:55:18.478Z,69.30
2018-05-21T18:57:48.934Z,69.60
2018-05-21T19:00:19.553Z,69.20
2018-05-21T19:02:49.975Z,68.60
2018-05-21T19:05:19.878Z,68.70
2018-05-21T19:07:55.746Z,66.70
2018-05-21T19:10:27.089Z,66.30
2018-05-21T19:12:57.928Z,66.30
2018-05-21T19:15:28.560Z,64.60
2018-05-21T19:17:59.071Z,66.00
2018-05-21T19:20:29.097Z,66.20
2018-05-21T19:22:59.115Z,66.60
2018-05-21T19:25:29.335Z,66.20
2018-05-21T19:27:59.458Z,66.00
2018-05-21T19:30:29.799Z,66.40
2018-05-21T19:32:59.998Z,64.70
2018-05-21T19:35:30.275Z,63.00
2018-05-21T19:38:00.370Z,63.70
2018-05-21T19:40:30.344Z,62.10
2018-05-21T19:43:00.584Z,63.10
2018-05-21T19:45:30.705Z,64.00
2018-05-21T19:48:01.051Z,64.40
2018-05-21T19:50:31.167Z,65.10
2018-05-21T19:53:01.316Z,65.20
2018-05-21T19:55:31.382Z,64.60
2018-05-21T19:58:01.610Z,64.60
2018-05-21T20:00:31.951Z,64.50
2018-05-21T20:03:02.287Z,65.00
2018-05-21T20:05:32.405Z,62.60
2018-05-21T20:08:02.700Z,60.00
2018-05-21T20:10:32.869Z,61.20
2018-05-21T20:13:03.187Z,61.20
2018-05-21T20:15:33.675Z,60.60
2018-05-21T20:18:04.211Z,59.80
2018-05-21T20:20:45.076Z,61.50
2018-05-21T20:23:15.523Z,59.00
2018-05-21T20:25:45.763Z,59.70
2018-05-21T20:28:15.982Z,60.20
2018-05-21T20:30:46.291Z,61.60
2018-05-21T20:33:17.632Z,58.60
2018-05-21T20:35:47.864Z,58.70
2018-05-21T20:38:18.296Z,59.40
2018-05-21T20:40:48.447Z,59.40
2018-05-21T20:43:18.938Z,61.60
2018-05-21T20:45:49.216Z,58.30
2018-05-21T20:48:20.147Z,59.50
2018-05-21T20:50:51.374Z,57.40
2018-05-21T20:53:22.071Z,57.40
2018-05-21T20:55:52.389Z,58.60
2018-05-21T20:58:23.295Z,59.50
2018-05-21T21:00:54.720Z,57.90
2018-05-21T21:03:25.128Z,57.80
2018-05-21T21:05:55.433Z,58.50
2018-05-21T21:08:25.780Z,58.70
2018-05-21T21:10:57.131Z,58.00
2018-05-21T21:13:27.323Z,58.10
2018-05-21T21:15:57.463Z,58.30
2018-05-21T21:18:27.807Z,61.60
2018-05-21T21:20:58.034Z,59.00
2018-05-21T21:23:28.149Z,57.80
2018-05-21T21:25:58.602Z,58.20
2018-05-21T21:28:29.500Z,59.60
2018-05-21T21:30:59.741Z,59.60
2018-05-21T21:33:30.063Z,59.10
2018-05-21T21:36:00.221Z,59.50
2018-05-21T21:38:30.635Z,59.60
2018-05-21T21:41:01.221Z,59.80
2018-05-21T21:43:31.789Z,58.70
2018-05-21T21:46:01.584Z,57.50
2018-05-21T21:48:31.284Z,59.30
2018-05-21T21:51:01.019Z,58.00
2018-05-21T21:53:30.743Z,58.20
2018-05-21T21:56:01.298Z,57.40
2018-05-21T21:58:32.405Z,58.00
2018-05-21T22:01:03.447Z,56.80
2018-05-21T22:03:33.191Z,58.20
2018-05-21T22:06:02.976Z,57.50
2018-05-21T22:08:33.475Z,57.00
2018-05-21T22:11:03.685Z,57.00
2018-05-21T22:13:34.317Z,58.60
2018-05-21T22:16:05.285Z,57.40
2018-05-21T22:18:35.572Z,57.40
2018-05-21T22:21:05.909Z,57.60
2018-05-21T22:23:36.313Z,59.60
2018-05-21T22:26:06.846Z,57.50
2018-05-21T22:28:37.287Z,57.70
2018-05-21T22:31:07.525Z,58.60
2018-05-21T22:33:37.834Z,60.00
2018-05-21T22:36:08.235Z,57.40
2018-05-21T22:38:38.500Z,57.00
2018-05-21T22:41:09.237Z,55.20
2018-05-21T22:43:39.767Z,55.70
2018-05-21T22:46:10.825Z,57.80
2018-05-21T22:48:41.814Z,57.40
2018-05-21T22:51:12.490Z,58.70
2018-05-21T22:53:42.766Z,56.60
2018-05-21T22:56:13.420Z,55.80
2018-05-21T22:58:43.543Z,56.10
2018-05-21T23:01:14.755Z,54.60
2018-05-21T23:03:45.281Z,54.50
2018-05-21T23:06:15.571Z,54.50
2018-05-21T23:08:45.632Z,54.10
2018-05-21T23:11:15.799Z,52.50
2018-05-21T23:13:46.001Z,54.10
2018-05-21T23:16:16.155Z,53.50
2018-05-21T23:18:46.739Z,54.10
2018-05-21T23:21:17.488Z,53.30
2018-05-21T23:23:47.921Z,53.60
2018-05-21T23:26:19.299Z,55.20
2018-05-21T23:28:50.899Z,53.70
2018-05-21T23:31:21.091Z,53.70
2018-05-21T23:33:52.285Z,54.10
2018-05-21T23:36:22.833Z,54.10
2018-05-21T23:38:53.795Z,54.10
2018-05-21T23:41:26.969Z,54.20
2018-05-21T23:43:57.713Z,54.30
2018-05-21T23:46:29.025Z,53.40
2018-05-21T23:48:59.230Z,52.70
2018-05-21T23:51:29.638Z,53.20
2018-05-21T23:54:01.033Z,52.70
2018-05-21T23:56:31.340Z,52.40
2018-05-21T23:59:01.674Z,52.70
